Mercer County Airport
KBLF : now visible

Airfield :











YOU CAN JOIN US ON...

 
LOGIN :

Register | Disclaimer

   EN    FR    IT 

 









Legend :    VFR   Marginal VFR   IFR   Intensive IFR   Very Intensive IFR
Visi :
Ceiling :
>= 8 km
>= 3000ft
5 to 8 km
1000 to 3000 ft
1500m to 5 km
500 to 1000 ft
800 to 1500m
200 to 500 ft
< 800m
< 200 ft
Symbols :   Thunderstorms  Fog  Heavy snow  Heavy precipitations  Wind > 20 kt






- Airport Elevation : 2857 ft
- IATA code : BLF


KBLF - Mercer County

CURRENT METAR :
  • 250752Z AUTO 25005KT 10SM CLR 03/02 A2986 RMK AO2 SLP112 T00280022 TSNO

EXPIRED METARs :
  • 250652Z AUTO 25006KT 10SM OVC043 04/03 A2987 RMK AO2 SLP113 T00390028 TSNO
  • 250552Z AUTO 24008KT 10SM BKN046 04/02 A2988 RMK AO2 SLP120 60000 T00440022 10078 20039 51005 TSNO

TAF KBLF
Valid from the 25 at 06:00 until the 26 at 06:00 UTC


250540Z 2506/2606 26009KT P6SM FEW007 BKN022 OVC040
FM250800 28008G16KT 4SM BR OVC007
TEMPO 2508/2512 2SM -SHRASN SCT007 OVC020
FM251500 28010G18KT P6SM OVC012
FM252100 27010KT P6SM OVC025



MET'MAP, your aeronautical weather chart ! - Copyright ORBIFLY December 2007 - Disclaimer

ORBIFLY MET'MAP TEAM :

Programming & Development : Alexandra Zaïnal
Concept & original design : Baudouin d'Aumeries
Assistance for programming : Marc-Olivier Méhu
Technical & hardware support : Manuel Goepfert

Contact : metmap@orbifly.com




SOURCES & CREDITS :

   NOAA       Earth
Advisory